Time;durP1;ratioP1;P1;durP2;ratioP2;P2;SDS_P1;SDS_P2;PMS_P1;PMS_P2;Temp;Humidity;BMP_temperature;BMP_pressure;BME280_temperature;BME280_humidity;BME280_pressure;Samples;Min_cycle;Max_cycle;Signal;HPM_P1;HPM_P2
2021/03/23 00:00:52;;;;;;;9.43;4.50;;;;;;;7.06;63.15;101485.81;5018993;28;20024;-73
2021/03/23 00:03:31;;;;;;;7.20;4.83;;;;;;;6.89;63.54;101485.50;5033316;28;20029;-73
2021/03/23 00:05:56;;;;;;;10.18;5.30;;;;;;;6.99;63.26;101483.94;5038288;28;20271;-72
2021/03/23 00:08:33;;;;;;;6.35;4.35;;;;;;;7.03;62.86;101492.72;5029359;28;20087;-73
2021/03/23 00:11:03;;;;;;;8.98;5.07;;;;;;;6.98;63.09;101490.03;5032004;28;20025;-73
2021/03/23 00:13:28;;;;;;;7.07;5.13;;;;;;;7.06;63.14;101485.81;5034617;28;20086;-71
2021/03/23 00:15:54;;;;;;;5.93;4.20;;;;;;;7.05;63.75;101489.31;5054060;28;20026;-70
2021/03/23 00:18:19;;;;;;;9.05;4.75;;;;;;;6.67;64.30;101492.06;5044345;28;20480;-71
2021/03/23 00:20:45;;;;;;;10.07;5.22;;;;;;;6.95;63.66;101486.44;5041696;28;20075;-73
2021/03/23 00:23:10;;;;;;;9.73;5.00;;;;;;;6.84;63.20;101491.50;5017337;28;20025;-73
2021/03/23 00:25:36;;;;;;;9.23;5.45;;;;;;;6.66;64.65;101485.03;5017362;28;20025;-73
2021/03/23 00:28:01;;;;;;;11.32;4.80;;;;;;;6.82;64.64;101487.94;5015812;28;20087;-73
2021/03/23 00:30:27;;;;;;;6.25;5.13;;;;;;;6.73;64.79;101492.16;5016133;28;20028;-73
2021/03/23 00:32:53;;;;;;;5.80;4.13;;;;;;;6.81;64.62;101487.09;5049276;28;20067;-73
2021/03/23 00:35:18;;;;;;;9.00;6.00;;;;;;;6.84;64.30;101488.88;5024691;28;20431;-73
2021/03/23 00:37:44;;;;;;;8.15;4.97;;;;;;;6.46;65.92;101488.13;5019323;28;20025;-73
2021/03/23 00:40:13;;;;;;;8.27;5.20;;;;;;;6.67;64.97;101492.06;5034773;28;20434;-71
2021/03/23 00:42:39;;;;;;;8.48;4.80;;;;;;;6.75;64.73;101490.47;5036459;28;20036;-71
2021/03/23 00:45:05;;;;;;;8.20;4.82;;;;;;;6.88;64.48;101491.59;5025114;28;20388;-71
2021/03/23 00:47:31;;;;;;;11.20;6.15;;;;;;;6.93;64.10;101483.78;5037072;28;20399;-72
2021/03/23 00:49:56;;;;;;;6.90;4.88;;;;;;;6.99;64.45;101490.91;5041972;28;20032;-71
2021/03/23 00:52:21;;;;;;;9.75;4.70;;;;;;;6.86;64.82;101489.78;5052757;28;20339;-71
2021/03/23 00:54:47;;;;;;;8.10;5.43;;;;;;;7.02;63.66;101489.22;5053160;28;20056;-71
2021/03/23 00:57:12;;;;;;;8.88;5.70;;;;;;;6.66;65.24;101485.03;5043954;28;20067;-71
2021/03/23 00:59:37;;;;;;;8.05;4.82;;;;;;;6.72;64.67;101482.53;5052926;28;20472;-71
2021/03/23 01:02:03;;;;;;;7.22;4.95;;;;;;;6.56;66.10;101477.84;5019086;28;20045;-71
2021/03/23 01:04:28;;;;;;;8.02;4.80;;;;;;;6.64;65.54;101478.88;5034370;28;20017;-72
2021/03/23 01:06:54;;;;;;;9.93;4.72;;;;;;;6.81;65.66;101484.47;5036234;28;20416;-71
2021/03/23 01:09:19;;;;;;;5.72;4.22;;;;;;;6.84;65.14;101470.53;5032936;28;20132;-71
2021/03/23 01:11:44;;;;;;;10.77;5.05;;;;;;;6.62;66.55;101471.00;5037659;28;20021;-71
2021/03/23 01:14:10;;;;;;;7.50;4.53;;;;;;;6.48;66.31;101465.47;5035009;28;20119;-71
2021/03/23 01:16:35;;;;;;;9.68;5.40;;;;;;;6.54;66.27;101469.94;5033865;28;20059;-72
2021/03/23 01:19:00;;;;;;;5.80;4.53;;;;;;;6.61;66.00;101473.56;5048132;28;20485;-72
2021/03/23 01:21:26;;;;;;;6.53;4.00;;;;;;;6.56;66.51;101473.47;5033766;28;20116;-72
2021/03/23 01:23:52;;;;;;;6.68;4.30;;;;;;;6.58;66.77;101478.75;5015065;28;20021;-73
2021/03/23 01:26:17;;;;;;;9.35;5.30;;;;;;;6.75;65.01;101469.50;5040746;28;20041;-73
2021/03/23 01:28:42;;;;;;;7.28;3.92;;;;;;;6.54;65.87;101481.31;5018250;28;20036;-73
2021/03/23 01:31:08;;;;;;;9.98;4.43;;;;;;;6.71;65.04;101474.63;5017804;28;20428;-71
2021/03/23 01:33:33;;;;;;;9.02;4.22;;;;;;;6.48;65.61;101475.94;5052100;28;20029;-73
2021/03/23 01:35:58;;;;;;;7.88;4.45;;;;;;;6.54;65.24;101477.81;5042914;28;20033;-73
2021/03/23 01:38:24;;;;;;;4.97;3.78;;;;;;;6.53;65.27;101471.69;5035772;28;20123;-72
2021/03/23 01:40:49;;;;;;;7.00;3.88;;;;;;;6.65;64.65;101478.03;5019551;28;20029;-72
2021/03/23 01:43:26;;;;;;;7.65;3.55;;;;;;;6.80;64.42;101482.69;5039239;28;20374;-72
2021/03/23 01:45:52;;;;;;;6.72;3.33;;;;;;;6.59;65.06;101478.78;5019123;28;20025;-72
2021/03/23 01:48:23;;;;;;;8.25;4.13;;;;;;;6.73;64.88;101480.81;5033428;28;20032;-72
2021/03/23 01:50:51;;;;;;;7.00;3.40;;;;;;;6.53;65.27;101484.78;5037595;28;20143;-72
2021/03/23 01:53:24;;;;;;;4.65;3.13;;;;;;;6.67;64.40;101484.19;5034405;28;20041;-72
2021/03/23 01:55:50;;;;;;;3.70;2.78;;;;;;;6.74;64.12;101482.56;5034020;28;20029;-72
2021/03/23 01:58:15;;;;;;;5.82;4.03;;;;;;;6.88;63.05;101482.84;5049624;28;20171;-72
2021/03/23 02:00:43;;;;;;;5.40;3.15;;;;;;;6.60;64.69;101480.53;5035155;28;20028;-72
2021/03/23 02:03:09;;;;;;;4.00;3.63;;;;;;;6.57;64.28;101482.22;5035032;28;20108;-73
2021/03/23 02:05:34;;;;;;;5.68;2.85;;;;;;;6.54;64.51;101476.06;5034362;28;20170;-72
2021/03/23 02:08:00;;;;;;;4.68;2.67;;;;;;;6.59;64.16;101480.50;5051149;28;20031;-72
2021/03/23 02:10:26;;;;;;;4.90;2.90;;;;;;;6.70;63.66;101475.50;5033957;28;20492;-72
2021/03/23 02:12:52;;;;;;;5.40;2.75;;;;;;;6.57;64.18;101479.59;5033958;28;20036;-72
2021/03/23 02:15:20;;;;;;;5.53;2.60;;;;;;;6.53;64.82;101483.88;5051981;28;20024;-72
2021/03/23 02:18:22;;;;;;;5.97;2.35;;;;;;;6.60;64.08;101484.91;5018753;28;20025;-72
2021/03/23 02:21:08;;;;;;;;;;;;;;;6.41;64.96;101480.16;5039897;28;20866;-73
2021/03/23 02:23:46;;;;;;;3.55;2.40;;;;;;;6.40;65.85;101487.97;5014121;28;19916;-72
2021/03/23 02:26:15;;;;;;;3.33;2.28;;;;;;;6.49;64.49;101490.81;5044474;28;20028;-72
2021/03/23 02:28:54;;;;;;;4.13;2.28;;;;;;;6.63;64.57;101484.97;5015237;28;20060;-72
2021/03/23 02:31:23;;;;;;;3.58;2.90;;;;;;;6.44;65.16;101486.34;5029312;28;20033;-73
2021/03/23 02:33:49;;;;;;;5.90;3.10;;;;;;;6.31;65.81;101491.31;5023488;28;20033;-73
2021/03/23 02:36:14;;;;;;;4.95;2.92;;;;;;;6.41;65.22;101492.41;5027009;28;20042;-73
2021/03/23 02:38:40;;;;;;;4.90;2.92;;;;;;;6.16;66.89;101483.97;5050216;28;20029;-73
2021/03/23 02:41:05;;;;;;;3.30;2.40;;;;;;;6.29;66.13;101483.41;5044434;28;20119;-73
2021/03/23 02:43:30;;;;;;;4.28;2.85;;;;;;;6.49;64.70;101490.81;5039385;28;20484;-73
2021/03/23 02:52:58;;;;;;;7.35;4.68;;;;;;;6.54;65.36;101501.41;5047303;28;20041;-73
2021/03/23 02:55:23;;;;;;;7.55;5.38;;;;;;;6.36;66.35;101496.63;5044435;28;20403;-73
2021/03/23 02:57:48;;;;;;;8.25;4.90;;;;;;;6.33;65.76;101501.84;5049868;28;20025;-73
2021/03/23 03:00:16;;;;;;;6.75;4.20;;;;;;;6.45;66.34;101495.94;5032536;28;20029;-73
2021/03/23 03:02:41;;;;;;;4.97;4.10;;;;;;;6.25;65.57;101494.69;5049819;28;20021;-73
2021/03/23 03:05:08;;;;;;;5.78;3.45;;;;;;;6.33;66.27;101493.97;5048567;28;20082;-73
2021/03/23 03:07:33;;;;;;;6.15;3.75;;;;;;;6.18;66.66;101495.41;5024822;28;20459;-73
2021/03/23 03:09:58;;;;;;;5.78;3.35;;;;;;;6.23;66.76;101492.84;5037511;28;20112;-73
2021/03/23 03:12:23;;;;;;;5.30;3.05;;;;;;;6.55;65.26;101497.91;5025593;28;20476;-73
2021/03/23 03:14:49;;;;;;;5.18;3.67;;;;;;;6.66;65.41;101500.75;5013508;28;20048;-73
2021/03/23 03:17:14;;;;;;;4.13;3.03;;;;;;;6.56;65.68;101499.69;5034842;28;20033;-73
2021/03/23 03:19:39;;;;;;;5.70;3.30;;;;;;;6.57;65.35;101497.97;5029701;28;20370;-73
2021/03/23 03:22:05;;;;;;;6.00;3.33;;;;;;;6.36;65.33;101501.88;5037259;28;20439;-73
2021/03/23 03:24:30;;;;;;;3.90;2.97;;;;;;;6.51;65.31;101502.19;5041110;28;20028;-73
2021/03/23 03:26:55;;;;;;;4.60;2.80;;;;;;;6.53;64.53;101510.09;5046046;28;20423;-73
2021/03/23 03:29:21;;;;;;;6.22;3.47;;;;;;;6.32;65.85;101505.28;5032461;28;20463;-73
2021/03/23 03:31:46;;;;;;;5.22;3.20;;;;;;;6.54;65.59;101504.88;5044532;28;20411;-72
2021/03/23 03:34:11;;;;;;;4.82;3.30;;;;;;;6.58;65.14;101512.81;5040572;28;20477;-73
2021/03/23 03:36:37;;;;;;;5.53;3.72;;;;;;;6.08;67.76;101514.38;5051158;28;20033;-72
2021/03/23 03:39:05;;;;;;;5.47;3.30;;;;;;;6.05;68.05;101511.66;5039379;28;20025;-73
2021/03/23 03:41:30;;;;;;;5.15;3.75;;;;;;;5.96;67.71;101512.28;5014726;28;20021;-73
2021/03/23 03:43:55;;;;;;;4.97;3.83;;;;;;;6.16;67.79;101520.66;5032582;28;20017;-73
2021/03/23 03:46:21;;;;;;;13.98;4.70;;;;;;;6.13;68.91;101517.97;5051095;28;20040;-72
2021/03/23 03:48:46;;;;;;;9.52;5.45;;;;;;;6.07;68.51;101520.47;5021447;28;20449;-73
2021/03/23 03:51:11;;;;;;;6.30;4.53;;;;;;;5.87;69.57;101524.31;5016661;28;20106;-73
2021/03/23 03:53:37;;;;;;;7.22;4.68;;;;;;;6.12;69.63;101521.44;5029509;28;20119;-73
2021/03/23 03:56:03;;;;;;;5.95;5.32;;;;;;;6.23;68.25;101522.56;5041826;28;20037;-73
2021/03/23 03:58:29;;;;;;;6.70;5.35;;;;;;;6.38;67.77;101527.28;5026730;28;20625;-73
2021/03/23 04:00:55;;;;;;;7.75;4.97;;;;;;;6.02;69.48;101517.69;5046165;28;20025;-73
2021/03/23 04:03:26;;;;;;;7.07;4.53;;;;;;;6.32;67.83;101526.25;5022729;28;20027;-73
2021/03/23 04:05:53;;;;;;;7.78;4.70;;;;;;;6.24;68.57;101529.56;5045759;28;20029;-73
2021/03/23 04:08:23;;;;;;;9.70;5.38;;;;;;;6.18;68.61;101523.31;5022633;28;20392;-73
2021/03/23 04:10:49;;;;;;;10.25;6.15;;;;;;;6.16;69.35;101531.13;5012853;28;20155;-73
2021/03/23 04:13:15;;;;;;;10.93;5.90;;;;;;;6.00;69.49;101522.88;5037409;28;20544;-73
2021/03/23 04:15:43;;;;;;;8.35;5.80;;;;;;;6.12;69.95;101527.56;5036711;28;20151;-73
2021/03/23 04:18:09;;;;;;;7.78;5.68;;;;;;;6.26;67.82;101527.00;5045636;28;20032;-73
2021/03/23 04:20:35;;;;;;;8.13;5.78;;;;;;;5.94;69.26;101527.09;5017547;28;20072;-73
2021/03/23 04:23:01;;;;;;;6.85;5.38;;;;;;;6.13;69.63;101531.97;5033919;28;20036;-73
2021/03/23 04:25:30;;;;;;;7.10;5.82;;;;;;;6.12;69.25;101529.28;5034171;28;20068;-71
2021/03/23 04:27:56;;;;;;;8.73;5.80;;;;;;;5.73;70.82;101525.72;5016350;28;20060;-73
2021/03/23 04:30:22;;;;;;;8.02;6.15;;;;;;;5.85;70.05;101530.38;5016274;28;20264;-73
2021/03/23 04:32:48;;;;;;;9.52;5.80;;;;;;;5.88;70.98;101533.09;5030656;28;20040;-73
2021/03/23 04:35:23;;;;;;;8.25;5.85;;;;;;;5.99;69.64;101531.59;5033985;28;20024;-72
2021/03/23 04:37:48;;;;;;;10.85;6.00;;;;;;;5.61;71.87;101536.78;5027492;28;20020;-71
2021/03/23 04:40:14;;;;;;;9.82;6.47;;;;;;;5.71;71.47;101538.78;5051952;28;20025;-71
2021/03/23 04:42:39;;;;;;;7.07;5.78;;;;;;;5.65;71.76;101543.88;5019135;28;20040;-71
2021/03/23 04:45:05;;;;;;;11.50;6.45;;;;;;;5.71;71.30;101536.19;5021453;28;20025;-72
2021/03/23 04:47:30;;;;;;;10.68;6.35;;;;;;;5.83;70.73;101543.44;5043070;28;20036;-73
2021/03/23 04:49:56;;;;;;;11.57;6.70;;;;;;;5.90;69.98;101549.69;5033520;28;20045;-72
2021/03/23 04:52:21;;;;;;;8.63;6.00;;;;;;;5.81;71.42;101542.53;5034218;28;20496;-72
2021/03/23 04:54:46;;;;;;;7.18;5.57;;;;;;;5.93;70.47;101551.53;5035166;28;20020;-73
2021/03/23 04:57:11;;;;;;;9.30;6.20;;;;;;;5.92;70.06;101540.16;5020496;28;20036;-73
2021/03/23 04:59:37;;;;;;;7.63;6.30;;;;;;;5.84;70.68;101545.19;5017976;28;20395;-72
2021/03/23 05:02:02;;;;;;;10.10;6.60;;;;;;;5.77;70.96;101554.63;5052617;28;20484;-72
2021/03/23 05:04:27;;;;;;;8.63;6.50;;;;;;;6.08;70.50;101549.31;5035192;28;20102;-72
2021/03/23 05:06:53;;;;;;;8.85;6.88;;;;;;;6.07;69.97;101549.28;5052031;28;20079;-73
2021/03/23 05:09:18;;;;;;;12.38;7.25;;;;;;;6.07;69.60;101549.28;5050866;28;20026;-72
2021/03/23 05:11:43;;;;;;;9.55;6.97;;;;;;;6.02;69.14;101559.59;5041790;28;20032;-72
2021/03/23 05:14:10;;;;;;;10.85;5.97;;;;;;;5.84;69.60;101562.66;5035097;28;20025;-72
2021/03/23 05:16:35;;;;;;;9.75;6.93;;;;;;;5.93;69.74;101575.97;5024591;28;20036;-73
2021/03/23 05:19:01;;;;;;;9.57;5.80;;;;;;;5.77;70.03;101569.47;5052277;28;20025;-72
2021/03/23 05:21:27;;;;;;;8.52;6.35;;;;;;;5.84;70.31;101567.91;5052030;28;20040;-71
2021/03/23 05:23:57;;;;;;;8.73;5.97;;;;;;;6.01;69.63;101574.41;5036138;28;20052;-71
2021/03/23 05:26:23;;;;;;;10.03;6.63;;;;;;;6.15;69.93;101571.28;5013504;28;20499;-71
2021/03/23 05:28:48;;;;;;;10.55;7.18;;;;;;;6.29;68.95;101572.50;5052635;28;20274;-71
2021/03/23 05:31:15;;;;;;;9.48;7.22;;;;;;;6.16;70.76;101578.28;5033070;28;20028;-71
2021/03/23 05:33:40;;;;;;;10.10;6.70;;;;;;;6.19;70.08;101575.75;5034640;28;20024;-72
2021/03/23 05:36:06;;;;;;;8.30;6.60;;;;;;;5.91;71.94;101568.06;5033792;28;20064;-73
2021/03/23 05:38:31;;;;;;;9.25;7.25;;;;;;;6.05;72.14;101569.28;5034643;28;20025;-73
2021/03/23 05:41:20;;;;;;;9.00;7.68;;;;;;;6.27;71.27;101573.31;5029666;28;20116;-72
2021/03/23 05:43:58;;;;;;;12.20;8.75;;;;;;;6.53;70.29;101573.00;5015002;28;20496;-72
2021/03/23 05:46:29;;;;;;;14.38;8.07;;;;;;;6.16;70.79;101565.19;5042969;28;20071;-72
2021/03/23 05:48:54;;;;;;;;;;;;;;;5.96;72.62;101581.28;5052014;28;20025;-73
2021/03/23 05:51:24;;;;;;;12.88;8.63;;;;;;;6.17;71.81;101580.03;5051778;28;20083;-73
2021/03/23 05:53:58;;;;;;;12.73;9.90;;;;;;;6.02;73.21;101584.06;5051000;28;20040;-73
2021/03/23 05:56:24;;;;;;;15.43;9.45;;;;;;;6.15;72.29;101576.53;5036230;28;20405;-73
2021/03/23 05:58:54;;;;;;;16.13;11.45;;;;;;;6.12;72.53;101577.34;5036989;28;20053;-72
2021/03/23 06:01:30;;;;;;;16.63;10.88;;;;;;;6.03;72.34;101583.25;5031031;28;20655;-72
2021/03/23 06:04:03;;;;;;;20.27;14.10;;;;;;;6.16;72.15;101586.16;5014534;28;20033;-72
2021/03/23 06:06:42;;;;;;;31.77;18.15;;;;;;;6.27;72.66;101583.81;5032311;28;20017;-72
2021/03/23 06:09:16;;;;;;;25.95;16.17;;;;;;;5.80;73.33;101584.38;5030640;28;20029;-72
2021/03/23 06:11:44;;;;;;;24.40;17.08;;;;;;;6.14;73.74;101590.47;5013623;28;20032;-72
2021/03/23 06:14:46;;;;;;;19.90;14.70;;;;;;;6.32;72.90;101591.75;5032046;28;20025;-72
2021/03/23 06:17:14;;;;;;;26.95;16.45;;;;;;;6.29;71.44;101585.59;5031963;28;20030;-72
2021/03/23 06:20:04;;;;;;;21.00;15.85;;;;;;;6.40;71.60;101588.47;5014159;28;20030;-71
2021/03/23 06:22:57;;;;;;;17.77;11.75;;;;;;;6.64;71.24;101591.59;5037145;28;20033;-73
2021/03/23 06:25:34;;;;;;;20.67;14.23;;;;;;;6.82;69.28;101600.72;5051026;28;20025;-73
2021/03/23 06:28:28;;;;;;;30.25;18.95;;;;;;;6.57;71.55;101590.56;5028543;28;20025;-71
2021/03/23 06:30:59;;;;;;;35.97;19.08;;;;;;;6.61;70.95;101597.69;5035047;28;20024;-72
2021/03/23 06:33:26;;;;;;;40.58;24.85;;;;;;;6.70;70.02;101591.72;5031376;28;20037;-73
2021/03/23 06:36:03;;;;;;;35.47;20.90;;;;;;;6.90;70.14;101593.88;5034203;28;20445;-73
2021/03/23 06:38:33;;;;;;;52.15;30.10;;;;;;;6.61;71.06;101597.69;5033766;28;20060;-73
2021/03/23 06:41:10;;;;;;;27.48;16.92;;;;;;;6.90;69.57;101588.63;5017155;28;20017;-73
2021/03/23 06:43:37;;;;;;;35.17;22.30;;;;;;;6.96;70.39;101594.03;5051635;28;20434;-73
2021/03/23 06:46:24;;;;;;;30.33;18.00;;;;;;;7.11;70.45;101587.31;5033728;28;20021;-73
2021/03/23 06:49:24;;;;;;;18.48;13.18;;;;;;;7.60;68.54;101591.75;5051032;28;20047;-73
2021/03/23 06:51:52;;;;;;;16.85;11.00;;;;;;;7.82;68.18;101596.53;5034605;28;20587;-73
2021/03/23 06:54:21;;;;;;;13.55;10.63;;;;;;;7.97;66.95;101592.34;5051429;28;20108;-73
2021/03/23 06:57:07;;;;;;;10.07;7.88;;;;;;;7.64;66.79;101589.19;5033990;28;20056;-73
2021/03/23 06:59:56;;;;;;;11.88;7.60;;;;;;;7.39;67.29;101582.59;5051529;28;20021;-73
2021/03/23 07:02:35;;;;;;;9.18;6.70;;;;;;;7.40;66.64;101597.50;5051331;28;20673;-73
2021/03/23 07:05:15;;;;;;;6.47;5.38;;;;;;;7.36;66.00;101598.28;5051490;28;20029;-73
2021/03/23 07:08:01;;;;;;;7.95;6.00;;;;;;;7.00;66.31;101593.22;5051381;28;20476;-73
2021/03/23 07:10:34;;;;;;;6.30;5.70;;;;;;;6.93;67.59;101599.19;5051461;28;20076;-73
2021/03/23 07:13:00;;;;;;;6.68;5.05;;;;;;;7.24;65.91;101594.56;5033480;28;20017;-73
2021/03/23 07:15:31;;;;;;;7.05;5.80;;;;;;;7.29;65.85;101599.91;5051404;28;20029;-73
2021/03/23 07:18:01;;;;;;;7.60;5.00;;;;;;;7.22;66.27;101596.28;5033446;28;20025;-73
2021/03/23 07:20:33;;;;;;;5.88;4.65;;;;;;;7.23;66.09;101598.06;5033349;28;20036;-73
2021/03/23 07:22:58;;;;;;;6.10;5.30;;;;;;;6.68;67.82;101601.31;5053329;28;20499;-73
2021/03/23 07:25:39;;;;;;;5.35;4.85;;;;;;;7.04;66.81;101596.81;5037257;28;20033;-73
2021/03/23 07:28:28;;;;;;;5.25;4.63;;;;;;;7.02;67.26;101594.16;5020734;28;20070;-72
2021/03/23 07:31:15;;;;;;;5.95;4.72;;;;;;;7.26;66.60;101608.63;5037229;28;20025;-73
2021/03/23 07:34:13;;;;;;;6.22;4.72;;;;;;;7.43;65.74;101597.53;5014616;28;20048;-73
2021/03/23 07:36:42;;;;;;;8.68;5.75;;;;;;;7.39;64.94;101604.50;5054793;28;20017;-73
2021/03/23 07:39:30;;;;;;;6.68;5.72;;;;;;;6.94;67.21;101595.75;5053546;28;20029;-73
2021/03/23 07:41:58;;;;;;;6.57;5.63;;;;;;;7.12;68.31;101602.19;5036958;28;20116;-73
2021/03/23 07:44:39;;;;;;;5.28;4.70;;;;;;;7.26;68.32;101607.72;5054609;28;20025;-73
2021/03/23 07:47:27;;;;;;;5.88;4.78;;;;;;;7.53;66.41;101606.47;5036817;28;20024;-73
2021/03/23 07:49:59;;;;;;;6.35;4.30;;;;;;;7.50;67.66;101612.56;5020205;28;20083;-73
2021/03/23 07:53:01;;;;;;;6.30;4.80;;;;;;;7.54;66.52;101601.25;5053267;28;20478;-73
2021/03/23 07:55:27;;;;;;;6.72;4.47;;;;;;;7.91;65.57;101608.03;5023094;28;20045;-73
2021/03/23 07:58:04;;;;;;;6.03;5.30;;;;;;;7.52;66.36;101604.72;5032979;28;20029;-71
2021/03/23 08:00:40;;;;;;;5.55;4.70;;;;;;;7.77;66.56;101603.41;5052921;28;20039;-71
2021/03/23 08:03:13;;;;;;;5.78;4.93;;;;;;;7.80;65.37;101606.09;5035567;28;20028;-71
2021/03/23 08:05:53;;;;;;;5.47;4.75;;;;;;;7.70;67.18;101604.16;5036567;28;20159;-71
2021/03/23 08:08:36;;;;;;;6.70;4.90;;;;;;;7.72;67.56;101604.19;5036292;28;20021;-71
2021/03/23 08:11:14;;;;;;;5.95;4.97;;;;;;;7.95;65.39;101601.97;5036271;28;20025;-71
2021/03/23 08:13:57;;;;;;;7.68;4.88;;;;;;;8.52;64.28;101604.59;5054071;28;20047;-70
2021/03/23 08:17:00;;;;;;;5.03;4.53;;;;;;;8.13;64.04;101613.66;5036586;28;20079;-71
2021/03/23 08:19:50;;;;;;;5.63;4.47;;;;;;;9.28;62.38;101611.72;5053955;28;20031;-72
2021/03/23 08:22:39;;;;;;;6.03;4.70;;;;;;;10.11;60.10;101603.72;5036065;28;20033;-72
2021/03/23 08:25:41;;;;;;;4.60;3.47;;;;;;;10.19;57.96;101613.44;5036224;28;20029;-71
2021/03/23 08:28:16;;;;;;;7.65;4.03;;;;;;;11.03;57.68;101612.22;5005806;28;20040;-71
2021/03/23 08:30:54;;;;;;;4.60;4.20;;;;;;;11.42;56.43;101617.63;5053725;28;20436;-71
2021/03/23 08:33:28;;;;;;;5.30;4.55;;;;;;;10.55;55.82;101622.53;5035714;28;20055;-71
2021/03/23 08:36:22;;;;;;;5.10;4.38;;;;;;;10.20;57.35;101625.78;5053581;28;20021;-71
2021/03/23 08:38:56;;;;;;;5.18;4.68;;;;;;;10.94;56.84;101625.38;5006968;28;20128;-71
2021/03/23 08:41:39;;;;;;;5.47;4.40;;;;;;;11.02;57.33;101625.41;5035848;28;20492;-71
2021/03/23 08:44:05;;;;;;;6.32;5.72;;;;;;;9.99;58.17;101622.09;5053567;28;20075;-71
2021/03/23 08:46:34;;;;;;;5.15;4.65;;;;;;;10.00;58.23;101626.47;5035858;28;20029;-71
2021/03/23 08:49:03;;;;;;;5.32;4.82;;;;;;;9.93;57.94;101625.53;5035652;28;20434;-69
2021/03/23 08:51:30;;;;;;;6.80;6.05;;;;;;;9.32;58.76;101632.84;5035532;28;20480;-69
2021/03/23 08:54:00;;;;;;;6.93;6.18;;;;;;;9.66;59.88;101639.34;5019029;28;20593;-71
2021/03/23 08:56:40;;;;;;;7.10;5.13;;;;;;;9.75;58.84;101636.81;5052137;28;20116;-72
2021/03/23 08:59:32;;;;;;;6.67;6.03;;;;;;;8.83;59.32;101644.50;5053213;28;20104;-71
2021/03/23 09:01:58;;;;;;;6.53;5.93;;;;;;;9.07;61.08;101642.19;5053167;28;20797;-71
2021/03/23 09:04:29;;;;;;;5.55;4.80;;;;;;;9.41;57.97;101632.06;5035493;28;20036;-69
2021/03/23 09:07:01;;;;;;;5.57;4.57;;;;;;;9.42;58.56;101639.09;5035281;28;20488;-69
2021/03/23 09:09:35;;;;;;;4.32;3.90;;;;;;;9.37;58.79;101644.31;5035199;28;20079;-72
2021/03/23 09:12:42;;;;;;;6.00;4.40;;;;;;;9.37;57.76;101635.50;5035168;28;20083;-70
2021/03/23 09:15:25;;;;;;;6.05;5.28;;;;;;;9.21;58.53;101643.22;5053078;28;20488;-71
2021/03/23 09:18:03;;;;;;;5.18;4.70;;;;;;;9.63;57.89;101643.72;5035242;28;20480;-71
2021/03/23 09:20:32;;;;;;;5.70;4.50;;;;;;;9.82;57.48;101649.19;5053326;28;20056;-70
2021/03/23 09:23:15;;;;;;;5.53;4.82;;;;;;;9.25;58.25;101646.81;5052900;28;20162;-72
2021/03/23 09:25:54;;;;;;;6.03;4.97;;;;;;;9.92;57.25;101646.63;5053211;28;20391;-71
2021/03/23 09:28:32;;;;;;;8.48;5.78;;;;;;;9.79;57.07;101645.59;5052636;28;20542;-71
2021/03/23 09:31:04;;;;;;;9.05;5.13;;;;;;;10.24;56.98;101646.88;5052686;28;20025;-71
2021/03/23 09:33:42;;;;;;;7.22;5.30;;;;;;;10.61;56.42;101630.47;5034809;28;20560;-70
2021/03/23 09:36:12;;;;;;;5.75;4.63;;;;;;;10.37;56.38;101636.47;5034964;28;20025;-72
2021/03/23 09:38:46;;;;;;;5.82;4.85;;;;;;;10.02;57.85;101637.94;5052531;28;20033;-71
2021/03/23 09:41:20;;;;;;;4.72;4.13;;;;;;;9.37;60.09;101636.41;5034704;28;20029;-71
2021/03/23 09:43:48;;;;;;;4.93;4.30;;;;;;;9.80;59.85;101635.09;5052279;28;20017;-72
2021/03/23 09:46:22;;;;;;;6.70;5.32;;;;;;;10.11;57.82;101640.63;5034665;28;20020;-72
2021/03/23 09:49:03;;;;;;;7.78;5.80;;;;;;;9.97;57.85;101637.88;5052287;28;20086;-72
2021/03/23 09:51:44;;;;;;;6.70;5.00;;;;;;;9.41;58.19;101641.72;5052345;28;20025;-71
2021/03/23 09:54:23;;;;;;;7.07;5.63;;;;;;;9.22;60.50;101646.75;5017934;28;20043;-70
2021/03/23 09:56:49;;;;;;;4.65;4.25;;;;;;;9.72;57.83;101648.19;5052416;28;20029;-71
2021/03/23 09:59:19;;;;;;;6.60;5.55;;;;;;;9.35;58.65;101648.69;5034415;28;20472;-71
2021/03/23 10:02:01;;;;;;;5.88;5.28;;;;;;;9.65;58.80;101653.38;5034383;28;20075;-71
2021/03/23 10:04:28;;;;;;;;;;;;;;;9.90;57.60;101658.91;5052577;28;20029;-71
2021/03/23 10:06:55;;;;;;;6.82;4.90;;;;;;;9.69;58.24;101660.44;5051974;28;20333;-69
2021/03/23 10:09:35;;;;;;;7.28;5.20;;;;;;;9.71;58.40;101661.34;5052011;28;20116;-74
2021/03/23 10:12:00;;;;;;;10.18;5.30;;;;;;;9.92;57.96;101659.78;5033602;28;20025;-74
2021/03/23 10:14:28;;;;;;;7.63;6.60;;;;;;;10.11;56.28;101656.44;5051432;28;20052;-74
2021/03/23 10:17:20;;;;;;;6.47;5.85;;;;;;;9.80;57.25;101661.44;5051749;28;20045;-74
2021/03/23 10:19:59;;;;;;;7.65;6.25;;;;;;;9.48;58.82;101656.72;5034071;28;20120;-74
2021/03/23 10:22:36;;;;;;;9.10;6.32;;;;;;;8.56;60.65;101652.88;5017284;28;20040;-74
2021/03/23 10:25:05;;;;;;;8.63;6.50;;;;;;;8.88;61.13;101662.09;5034354;28;20024;-74
2021/03/23 10:27:37;;;;;;;10.13;7.30;;;;;;;8.95;61.23;101663.97;5033776;28;20029;-74
2021/03/23 10:30:25;;;;;;;8.50;6.78;;;;;;;9.43;59.08;101667.19;5033997;28;20392;-74
2021/03/23 10:32:52;;;;;;;7.90;6.57;;;;;;;9.04;60.51;101661.44;5033620;28;20089;-74
2021/03/23 10:35:28;;;;;;;7.40;6.63;;;;;;;8.94;60.90;101672.72;5017516;28;20029;-74
2021/03/23 10:38:15;;;;;;;10.13;6.97;;;;;;;8.94;61.09;101676.22;5033978;28;20446;-74
2021/03/23 10:40:42;;;;;;;8.48;7.32;;;;;;;9.10;62.00;101674.69;5051576;28;20021;-75
2021/03/23 10:43:12;;;;;;;11.75;7.13;;;;;;;8.47;62.50;101685.13;5017395;28;20020;-75
2021/03/23 10:45:44;;;;;;;9.10;6.90;;;;;;;8.36;62.91;101690.22;5033839;28;20391;-74
2021/03/23 10:48:27;;;;;;;10.45;7.57;;;;;;;8.99;62.21;101681.56;5017212;28;20074;-74
2021/03/23 10:51:21;;;;;;;11.90;8.05;;;;;;;8.98;60.46;101682.44;5034189;28;20039;-74
2021/03/23 10:54:13;;;;;;;8.02;7.18;;;;;;;8.77;61.42;101685.63;5033725;28;20028;-74
2021/03/23 10:56:41;;;;;;;7.75;6.88;;;;;;;8.68;61.58;101696.91;5033645;28;20078;-74
2021/03/23 10:59:11;;;;;;;7.55;6.72;;;;;;;8.52;61.12;101691.38;5037655;28;20024;-74
2021/03/23 11:01:55;;;;;;;9.60;7.07;;;;;;;8.79;61.23;101694.41;5037502;28;20017;-74
2021/03/23 11:04:21;;;;;;;7.82;7.03;;;;;;;9.01;61.01;101692.09;5055510;28;20040;-74
2021/03/23 11:06:47;;;;;;;7.78;7.00;;;;;;;8.80;63.10;101691.81;5055832;28;20029;-74
2021/03/23 11:09:16;;;;;;;7.72;6.68;;;;;;;8.30;64.80;101688.38;5037369;28;20392;-74
2021/03/23 11:11:41;;;;;;;8.70;7.80;;;;;;;8.85;62.19;101679.63;5037799;28;20029;-74
2021/03/23 11:14:07;;;;;;;12.68;8.38;;;;;;;8.88;62.99;101677.88;5037482;28;20397;-74
2021/03/23 11:16:34;;;;;;;10.35;8.02;;;;;;;9.20;61.35;101674.78;5020900;28;20025;-74
2021/03/23 11:19:03;;;;;;;9.13;7.70;;;;;;;9.18;61.44;101677.44;5037514;28;20032;-74
2021/03/23 11:21:36;;;;;;;11.65;8.60;;;;;;;8.74;63.99;101670.69;5020566;28;20020;-74
2021/03/23 11:24:01;;;;;;;9.43;7.43;;;;;;;8.76;64.87;101663.69;5037367;28;20105;-75
2021/03/23 11:26:30;;;;;;;9.80;7.18;;;;;;;9.35;62.15;101663.59;5037227;28;20487;-75
2021/03/23 11:28:57;;;;;;;14.60;10.98;;;;;;;9.01;62.97;101669.31;5037163;28;20032;-75
2021/03/23 11:31:26;;;;;;;11.50;8.15;;;;;;;8.98;63.56;101669.28;5020638;28;20112;-74
2021/03/23 11:33:52;;;;;;;9.02;7.07;;;;;;;8.87;63.20;101665.63;5037200;28;20028;-74
2021/03/23 11:36:19;;;;;;;10.48;7.43;;;;;;;9.32;61.16;101667.06;5037354;28;20021;-74
2021/03/23 11:38:44;;;;;;;11.80;8.05;;;;;;;9.32;61.38;101667.06;5020680;28;20032;-74
2021/03/23 11:41:16;;;;;;;10.60;7.70;;;;;;;9.09;61.14;101665.03;5054796;28;20322;-74
2021/03/23 11:43:50;;;;;;;9.07;6.57;;;;;;;9.52;58.74;101665.53;5037028;28;20021;-74
2021/03/23 11:46:16;;;;;;;8.05;6.20;;;;;;;9.73;57.24;101664.88;5020665;28;20053;-74
2021/03/23 11:48:51;;;;;;;8.23;7.43;;;;;;;9.76;57.88;101664.91;5054506;28;20099;-74
2021/03/23 11:51:20;;;;;;;7.70;6.28;;;;;;;10.16;56.34;101668.78;5037311;28;20025;-74
2021/03/23 11:53:46;;;;;;;7.75;6.32;;;;;;;9.86;56.86;101666.78;5037325;28;20033;-74
2021/03/23 11:56:11;;;;;;;9.68;6.55;;;;;;;10.17;55.48;101662.66;5054584;28;20098;-75
2021/03/23 11:58:36;;;;;;;8.65;6.85;;;;;;;10.20;55.25;101660.06;5036655;28;20024;-74